Terminal Aerodrome Forecast
Issued by NWS Chicago, IL

Home | Current Version | Previous Version | Text Only | Print | Product List | Glossary Off
Versions: 1 2 3 4 5 6 7 8 9 10 11 12 13 14 15 16 17 18 19 20 21 22 23 24 25 26 27 28 29 30 31

000
FTUS43 KLOT 171100
TAFRFD
TAF
KRFD 171135Z 1712/1812 18012G18KT P6SM BKN060
     FM171300 21012G18KT P6SM BKN015
     FM171500 26012KT P6SM BKN020
     FM171800 27010KT P6SM SCT030 BKN150
     FM180300 30005KT P6SM SCT030 BKN120=

USA.gov is the U.S. government's official web portal to all federal, state and local government web resources and services.